sensor_id;sensor_type;location;lat;lon;timestamp;temperature;humidity
52231;DHT22;38192;50.102;19.884;2022-08-01T00:01:57;18.00;99.90
52231;DHT22;38192;50.102;19.884;2022-08-01T00:04:22;18.00;99.90
52231;DHT22;38192;50.102;19.884;2022-08-01T00:06:48;18.00;99.90
52231;DHT22;38192;50.102;19.884;2022-08-01T00:09:14;18.00;99.90
52231;DHT22;38192;50.102;19.884;2022-08-01T00:11:40;18.00;99.90
52231;DHT22;38192;50.102;19.884;2022-08-01T00:14:07;18.00;99.90
52231;DHT22;38192;50.102;19.884;2022-08-01T00:16:35;18.00;99.90
52231;DHT22;38192;50.102;19.884;2022-08-01T00:19:01;18.00;99.90
52231;DHT22;38192;50.102;19.884;2022-08-01T00:21:27;18.00;99.90
52231;DHT22;38192;50.102;19.884;2022-08-01T00:23:52;18.00;99.90
52231;DHT22;38192;50.102;19.884;2022-08-01T00:26:18;18.00;99.90
52231;DHT22;38192;50.102;19.884;2022-08-01T00:28:44;17.90;99.90
52231;DHT22;38192;50.102;19.884;2022-08-01T00:31:10;17.90;99.90
52231;DHT22;38192;50.102;19.884;2022-08-01T00:33:36;17.90;99.90
52231;DHT22;38192;50.102;19.884;2022-08-01T00:36:02;17.90;99.90
52231;DHT22;38192;50.102;19.884;2022-08-01T00:38:28;17.90;99.90
52231;DHT22;38192;50.102;19.884;2022-08-01T00:40:54;17.80;99.90
52231;DHT22;38192;50.102;19.884;2022-08-01T00:43:19;17.80;99.90
52231;DHT22;38192;50.102;19.884;2022-08-01T00:45:45;17.80;99.90
52231;DHT22;38192;50.102;19.884;2022-08-01T00:48:11;17.70;99.90
52231;DHT22;38192;50.102;19.884;2022-08-01T00:50:38;17.70;99.90
52231;DHT22;38192;50.102;19.884;2022-08-01T00:53:04;17.70;99.90
52231;DHT22;38192;50.102;19.884;2022-08-01T00:55:31;17.70;99.90
52231;DHT22;38192;50.102;19.884;2022-08-01T00:57:57;17.60;99.90
52231;DHT22;38192;50.102;19.884;2022-08-01T01:00:24;17.60;99.90
52231;DHT22;38192;50.102;19.884;2022-08-01T01:02:50;17.60;99.90
52231;DHT22;38192;50.102;19.884;2022-08-01T01:05:16;17.60;99.90
52231;DHT22;38192;50.102;19.884;2022-08-01T01:10:48;17.50;99.90
52231;DHT22;38192;50.102;19.884;2022-08-01T01:13:52;17.50;99.90
52231;DHT22;38192;50.102;19.884;2022-08-01T01:16:13;17.60;99.90
52231;DHT22;38192;50.102;19.884;2022-08-01T01:29:16;17.50;99.90
52231;DHT22;38192;50.102;19.884;2022-08-01T01:31:54;17.50;99.90
52231;DHT22;38192;50.102;19.884;2022-08-01T01:34:22;17.50;99.90
52231;DHT22;38192;50.102;19.884;2022-08-01T01:36:50;17.60;99.90
52231;DHT22;38192;50.102;19.884;2022-08-01T01:39:17;17.60;99.90
52231;DHT22;38192;50.102;19.884;2022-08-01T01:41:45;17.60;99.90
52231;DHT22;38192;50.102;19.884;2022-08-01T01:44:12;17.60;99.90
52231;DHT22;38192;50.102;19.884;2022-08-01T01:46:39;17.60;99.90
52231;DHT22;38192;50.102;19.884;2022-08-01T01:49:06;17.70;99.90
52231;DHT22;38192;50.102;19.884;2022-08-01T01:51:37;17.70;99.90
52231;DHT22;38192;50.102;19.884;2022-08-01T01:54:04;17.70;99.90
52231;DHT22;38192;50.102;19.884;2022-08-01T01:56:31;17.80;99.90
52231;DHT22;38192;50.102;19.884;2022-08-01T01:58:59;17.80;99.90
52231;DHT22;38192;50.102;19.884;2022-08-01T02:01:29;17.80;99.90
52231;DHT22;38192;50.102;19.884;2022-08-01T02:04:01;17.80;99.90
52231;DHT22;38192;50.102;19.884;2022-08-01T02:06:29;17.80;99.90
52231;DHT22;38192;50.102;19.884;2022-08-01T02:08:55;17.80;99.90
52231;DHT22;38192;50.102;19.884;2022-08-01T02:11:22;17.80;99.90
52231;DHT22;38192;50.102;19.884;2022-08-01T02:13:54;17.80;99.90
52231;DHT22;38192;50.102;19.884;2022-08-01T02:16:24;17.80;99.90
52231;DHT22;38192;50.102;19.884;2022-08-01T02:18:50;17.80;99.90
52231;DHT22;38192;50.102;19.884;2022-08-01T02:21:20;17.80;99.90
52231;DHT22;38192;50.102;19.884;2022-08-01T02:23:48;17.80;99.90
52231;DHT22;38192;50.102;19.884;2022-08-01T02:26:16;17.70;99.90
52231;DHT22;38192;50.102;19.884;2022-08-01T02:28:59;17.80;99.90
52231;DHT22;38192;50.102;19.884;2022-08-01T02:31:31;17.70;99.90
52231;DHT22;38192;50.102;19.884;2022-08-01T02:34:01;17.70;99.90
52231;DHT22;38192;50.102;19.884;2022-08-01T02:36:33;17.70;99.90
52231;DHT22;38192;50.102;19.884;2022-08-01T02:39:09;17.60;99.90
52231;DHT22;38192;50.102;19.884;2022-08-01T02:41:41;17.60;99.90
52231;DHT22;38192;50.102;19.884;2022-08-01T02:44:09;17.60;99.90
52231;DHT22;38192;50.102;19.884;2022-08-01T02:46:45;17.60;99.90
52231;DHT22;38192;50.102;19.884;2022-08-01T02:49:14;17.60;99.90
52231;DHT22;38192;50.102;19.884;2022-08-01T02:51:41;17.50;99.90
52231;DHT22;38192;50.102;19.884;2022-08-01T02:54:08;17.50;99.90
52231;DHT22;38192;50.102;19.884;2022-08-01T02:56:36;17.50;99.90
52231;DHT22;38192;50.102;19.884;2022-08-01T02:59:09;17.40;99.90
52231;DHT22;38192;50.102;19.884;2022-08-01T03:01:37;17.40;99.90
52231;DHT22;38192;50.102;19.884;2022-08-01T03:04:05;17.50;99.90
52231;DHT22;38192;50.102;19.884;2022-08-01T03:06:32;17.40;99.90
52231;DHT22;38192;50.102;19.884;2022-08-01T03:09:00;17.40;99.90
52231;DHT22;38192;50.102;19.884;2022-08-01T03:11:27;17.40;99.90
52231;DHT22;38192;50.102;19.884;2022-08-01T03:13:55;17.40;99.90
52231;DHT22;38192;50.102;19.884;2022-08-01T03:16:23;17.40;99.90
52231;DHT22;38192;50.102;19.884;2022-08-01T03:18:52;17.40;99.90
52231;DHT22;38192;50.102;19.884;2022-08-01T03:21:21;17.40;99.90
52231;DHT22;38192;50.102;19.884;2022-08-01T03:23:49;17.40;99.90
52231;DHT22;38192;50.102;19.884;2022-08-01T03:26:17;17.40;99.90
52231;DHT22;38192;50.102;19.884;2022-08-01T03:28:44;17.30;99.90
52231;DHT22;38192;50.102;19.884;2022-08-01T03:31:13;17.30;99.90
52231;DHT22;38192;50.102;19.884;2022-08-01T03:33:39;17.30;99.90
52231;DHT22;38192;50.102;19.884;2022-08-01T03:36:09;17.30;99.90
52231;DHT22;38192;50.102;19.884;2022-08-01T03:38:37;17.20;99.90
52231;DHT22;38192;50.102;19.884;2022-08-01T03:43:40;17.20;99.90
52231;DHT22;38192;50.102;19.884;2022-08-01T03:46:13;17.20;99.90
52231;DHT22;38192;50.102;19.884;2022-08-01T03:48:47;17.10;99.90
52231;DHT22;38192;50.102;19.884;2022-08-01T03:51:14;17.10;99.90
52231;DHT22;38192;50.102;19.884;2022-08-01T03:53:42;17.10;99.90
52231;DHT22;38192;50.102;19.884;2022-08-01T03:56:10;17.00;99.90
52231;DHT22;38192;50.102;19.884;2022-08-01T03:58:42;17.00;99.90
52231;DHT22;38192;50.102;19.884;2022-08-01T04:01:08;17.00;99.90
52231;DHT22;38192;50.102;19.884;2022-08-01T04:03:35;17.00;99.90
52231;DHT22;38192;50.102;19.884;2022-08-01T04:06:04;17.00;99.90
52231;DHT22;38192;50.102;19.884;2022-08-01T04:08:37;17.00;99.90
52231;DHT22;38192;50.102;19.884;2022-08-01T04:11:04;17.00;99.90
52231;DHT22;38192;50.102;19.884;2022-08-01T04:13:31;16.90;99.90
52231;DHT22;38192;50.102;19.884;2022-08-01T04:15:57;16.90;99.90
52231;DHT22;38192;50.102;19.884;2022-08-01T04:18:22;16.90;99.90
52231;DHT22;38192;50.102;19.884;2022-08-01T04:20:48;16.90;99.90
52231;DHT22;38192;50.102;19.884;2022-08-01T04:23:20;16.90;99.90
52231;DHT22;38192;50.102;19.884;2022-08-01T04:25:49;16.90;99.90
52231;DHT22;38192;50.102;19.884;2022-08-01T04:28:16;16.90;99.90
52231;DHT22;38192;50.102;19.884;2022-08-01T04:30:44;16.90;99.90
52231;DHT22;38192;50.102;19.884;2022-08-01T04:33:14;16.90;99.90
52231;DHT22;38192;50.102;19.884;2022-08-01T04:35:45;16.90;99.90
52231;DHT22;38192;50.102;19.884;2022-08-01T04:38:13;16.90;99.90
52231;DHT22;38192;50.102;19.884;2022-08-01T04:40:42;16.90;99.90
52231;DHT22;38192;50.102;19.884;2022-08-01T04:43:11;16.90;99.90
52231;DHT22;38192;50.102;19.884;2022-08-01T04:45:37;16.90;99.90
52231;DHT22;38192;50.102;19.884;2022-08-01T04:48:05;16.90;99.90
52231;DHT22;38192;50.102;19.884;2022-08-01T04:50:35;16.90;99.90
52231;DHT22;38192;50.102;19.884;2022-08-01T04:53:02;16.90;99.90
52231;DHT22;38192;50.102;19.884;2022-08-01T04:55:29;16.90;99.90
52231;DHT22;38192;50.102;19.884;2022-08-01T04:57:54;16.90;99.90
52231;DHT22;38192;50.102;19.884;2022-08-01T05:00:20;16.90;99.90
52231;DHT22;38192;50.102;19.884;2022-08-01T05:02:46;16.90;99.90
52231;DHT22;38192;50.102;19.884;2022-08-01T05:05:12;16.90;99.90
52231;DHT22;38192;50.102;19.884;2022-08-01T05:07:38;16.90;99.90
52231;DHT22;38192;50.102;19.884;2022-08-01T05:10:04;16.90;99.90
52231;DHT22;38192;50.102;19.884;2022-08-01T05:12:31;16.90;99.90
52231;DHT22;38192;50.102;19.884;2022-08-01T05:14:59;17.00;99.90
52231;DHT22;38192;50.102;19.884;2022-08-01T05:17:25;17.00;99.90
52231;DHT22;38192;50.102;19.884;2022-08-01T05:19:51;17.10;99.90
52231;DHT22;38192;50.102;19.884;2022-08-01T05:22:17;17.10;99.90
52231;DHT22;38192;50.102;19.884;2022-08-01T05:24:43;17.20;99.90
52231;DHT22;38192;50.102;19.884;2022-08-01T05:27:09;17.20;99.90
52231;DHT22;38192;50.102;19.884;2022-08-01T05:29:35;17.30;99.90
52231;DHT22;38192;50.102;19.884;2022-08-01T05:32:01;17.30;99.90
52231;DHT22;38192;50.102;19.884;2022-08-01T05:34:27;17.40;99.90
52231;DHT22;38192;50.102;19.884;2022-08-01T05:36:53;17.50;99.90
52231;DHT22;38192;50.102;19.884;2022-08-01T05:39:18;17.50;99.90
52231;DHT22;38192;50.102;19.884;2022-08-01T05:41:44;17.50;99.90
52231;DHT22;38192;50.102;19.884;2022-08-01T05:44:10;17.60;99.90
52231;DHT22;38192;50.102;19.884;2022-08-01T05:46:37;17.60;99.90
52231;DHT22;38192;50.102;19.884;2022-08-01T05:49:04;17.70;99.90
52231;DHT22;38192;50.102;19.884;2022-08-01T05:51:30;17.70;99.90
52231;DHT22;38192;50.102;19.884;2022-08-01T05:53:57;17.80;99.90
52231;DHT22;38192;50.102;19.884;2022-08-01T05:56:24;17.90;99.90
52231;DHT22;38192;50.102;19.884;2022-08-01T05:58:50;18.00;99.90
52231;DHT22;38192;50.102;19.884;2022-08-01T06:01:17;18.00;99.90
52231;DHT22;38192;50.102;19.884;2022-08-01T06:03:43;18.10;99.90
52231;DHT22;38192;50.102;19.884;2022-08-01T06:06:08;18.10;99.90
52231;DHT22;38192;50.102;19.884;2022-08-01T06:08:34;18.20;99.90
52231;DHT22;38192;50.102;19.884;2022-08-01T06:11:00;18.30;99.90
52231;DHT22;38192;50.102;19.884;2022-08-01T06:13:26;18.40;99.90
52231;DHT22;38192;50.102;19.884;2022-08-01T06:15:52;18.50;99.90
52231;DHT22;38192;50.102;19.884;2022-08-01T06:18:18;18.50;99.90
52231;DHT22;38192;50.102;19.884;2022-08-01T06:20:44;18.60;99.90
52231;DHT22;38192;50.102;19.884;2022-08-01T06:23:10;18.70;99.90
52231;DHT22;38192;50.102;19.884;2022-08-01T06:25:36;18.70;99.90
52231;DHT22;38192;50.102;19.884;2022-08-01T06:28:02;18.80;99.90
52231;DHT22;38192;50.102;19.884;2022-08-01T06:30:28;18.90;99.90
52231;DHT22;38192;50.102;19.884;2022-08-01T06:32:54;19.00;99.90
52231;DHT22;38192;50.102;19.884;2022-08-01T06:35:26;19.10;99.90
52231;DHT22;38192;50.102;19.884;2022-08-01T06:37:51;19.10;99.90
52231;DHT22;38192;50.102;19.884;2022-08-01T06:40:17;19.20;99.90
52231;DHT22;38192;50.102;19.884;2022-08-01T06:42:44;19.30;99.90
52231;DHT22;38192;50.102;19.884;2022-08-01T06:45:12;19.40;99.90
52231;DHT22;38192;50.102;19.884;2022-08-01T06:47:39;19.50;99.90
52231;DHT22;38192;50.102;19.884;2022-08-01T06:50:07;19.60;99.90
52231;DHT22;38192;50.102;19.884;2022-08-01T06:52:33;19.60;99.90
52231;DHT22;38192;50.102;19.884;2022-08-01T06:55:03;19.80;99.90
52231;DHT22;38192;50.102;19.884;2022-08-01T06:57:29;19.90;99.90
52231;DHT22;38192;50.102;19.884;2022-08-01T06:59:55;19.90;99.90
52231;DHT22;38192;50.102;19.884;2022-08-01T07:02:22;20.00;99.90
52231;DHT22;38192;50.102;19.884;2022-08-01T07:04:48;20.10;99.90
52231;DHT22;38192;50.102;19.884;2022-08-01T07:07:14;20.20;99.90
52231;DHT22;38192;50.102;19.884;2022-08-01T07:09:40;20.30;99.90
52231;DHT22;38192;50.102;19.884;2022-08-01T07:12:08;20.40;99.90
52231;DHT22;38192;50.102;19.884;2022-08-01T07:14:34;20.50;99.90
52231;DHT22;38192;50.102;19.884;2022-08-01T07:17:00;20.70;99.90
52231;DHT22;38192;50.102;19.884;2022-08-01T07:19:26;20.80;99.90
52231;DHT22;38192;50.102;19.884;2022-08-01T07:21:53;21.20;99.90
52231;DHT22;38192;50.102;19.884;2022-08-01T07:24:19;21.80;99.90
52231;DHT22;38192;50.102;19.884;2022-08-01T07:26:47;22.50;99.90
52231;DHT22;38192;50.102;19.884;2022-08-01T07:29:13;23.30;99.90
52231;DHT22;38192;50.102;19.884;2022-08-01T07:31:39;24.10;99.90
52231;DHT22;38192;50.102;19.884;2022-08-01T07:34:05;24.70;99.90
52231;DHT22;38192;50.102;19.884;2022-08-01T07:36:31;25.40;99.90
52231;DHT22;38192;50.102;19.884;2022-08-01T07:38:57;26.00;99.90
52231;DHT22;38192;50.102;19.884;2022-08-01T07:41:23;26.70;99.50
52231;DHT22;38192;50.102;19.884;2022-08-01T07:43:49;27.40;95.20
52231;DHT22;38192;50.102;19.884;2022-08-01T07:46:15;27.90;90.20
52231;DHT22;38192;50.102;19.884;2022-08-01T07:48:41;28.40;85.50
52231;DHT22;38192;50.102;19.884;2022-08-01T07:51:07;28.90;81.50
52231;DHT22;38192;50.102;19.884;2022-08-01T07:53:34;29.30;79.20
52231;DHT22;38192;50.102;19.884;2022-08-01T07:56:00;29.70;77.60
52231;DHT22;38192;50.102;19.884;2022-08-01T07:58:28;30.10;72.50
52231;DHT22;38192;50.102;19.884;2022-08-01T08:00:54;30.40;70.40
52231;DHT22;38192;50.102;19.884;2022-08-01T08:03:20;30.80;68.50
52231;DHT22;38192;50.102;19.884;2022-08-01T08:05:46;31.00;63.80
52231;DHT22;38192;50.102;19.884;2022-08-01T08:08:11;31.20;63.50
52231;DHT22;38192;50.102;19.884;2022-08-01T08:10:39;31.40;61.10
52231;DHT22;38192;50.102;19.884;2022-08-01T08:13:05;31.60;59.80
52231;DHT22;38192;50.102;19.884;2022-08-01T08:15:31;31.60;59.30
52231;DHT22;38192;50.102;19.884;2022-08-01T08:18:00;31.70;60.50
52231;DHT22;38192;50.102;19.884;2022-08-01T08:20:26;31.60;57.90
52231;DHT22;38192;50.102;19.884;2022-08-01T08:22:54;31.60;57.50
52231;DHT22;38192;50.102;19.884;2022-08-01T08:25:20;31.90;57.60
52231;DHT22;38192;50.102;19.884;2022-08-01T08:27:47;32.00;57.30
52231;DHT22;38192;50.102;19.884;2022-08-01T08:30:14;32.20;57.00
52231;DHT22;38192;50.102;19.884;2022-08-01T08:32:40;32.00;57.30
52231;DHT22;38192;50.102;19.884;2022-08-01T08:35:07;32.00;56.60
52231;DHT22;38192;50.102;19.884;2022-08-01T08:37:36;32.10;57.10
52231;DHT22;38192;50.102;19.884;2022-08-01T08:40:04;32.30;56.60
52231;DHT22;38192;50.102;19.884;2022-08-01T08:42:30;32.40;56.30
52231;DHT22;38192;50.102;19.884;2022-08-01T08:44:56;32.50;55.70
52231;DHT22;38192;50.102;19.884;2022-08-01T08:47:24;32.50;55.30
52231;DHT22;38192;50.102;19.884;2022-08-01T08:49:53;32.60;55.80
52231;DHT22;38192;50.102;19.884;2022-08-01T08:52:20;32.70;54.90
52231;DHT22;38192;50.102;19.884;2022-08-01T08:54:47;32.80;54.90
52231;DHT22;38192;50.102;19.884;2022-08-01T08:57:14;33.00;54.10
52231;DHT22;38192;50.102;19.884;2022-08-01T08:59:43;33.20;53.00
52231;DHT22;38192;50.102;19.884;2022-08-01T09:02:09;33.30;53.10
52231;DHT22;38192;50.102;19.884;2022-08-01T09:04:36;33.40;53.90
52231;DHT22;38192;50.102;19.884;2022-08-01T09:07:04;33.50;52.20
52231;DHT22;38192;50.102;19.884;2022-08-01T09:09:31;33.50;51.90
52231;DHT22;38192;50.102;19.884;2022-08-01T09:11:57;33.50;51.60
52231;DHT22;38192;50.102;19.884;2022-08-01T09:14:24;33.50;51.20
52231;DHT22;38192;50.102;19.884;2022-08-01T09:17:05;33.20;50.70
52231;DHT22;38192;50.102;19.884;2022-08-01T09:19:50;33.00;51.70
52231;DHT22;38192;50.102;19.884;2022-08-01T09:22:19;32.90;52.00
52231;DHT22;38192;50.102;19.884;2022-08-01T09:24:59;32.80;52.30
52231;DHT22;38192;50.102;19.884;2022-08-01T09:27:25;32.70;52.70
52231;DHT22;38192;50.102;19.884;2022-08-01T09:29:52;32.50;52.10
52231;DHT22;38192;50.102;19.884;2022-08-01T09:32:19;32.30;53.10
52231;DHT22;38192;50.102;19.884;2022-08-01T09:34:45;32.10;53.90
52231;DHT22;38192;50.102;19.884;2022-08-01T09:37:14;32.00;53.60
52231;DHT22;38192;50.102;19.884;2022-08-01T09:39:43;31.80;53.40
52231;DHT22;38192;50.102;19.884;2022-08-01T09:42:24;31.70;52.70
52231;DHT22;38192;50.102;19.884;2022-08-01T09:44:50;31.60;52.70
52231;DHT22;38192;50.102;19.884;2022-08-01T09:47:18;31.60;53.00
52231;DHT22;38192;50.102;19.884;2022-08-01T09:49:56;31.60;53.00
52231;DHT22;38192;50.102;19.884;2022-08-01T09:52:24;31.70;53.10
52231;DHT22;38192;50.102;19.884;2022-08-01T09:54:56;31.70;52.40
52231;DHT22;38192;50.102;19.884;2022-08-01T09:57:22;31.40;51.70
52231;DHT22;38192;50.102;19.884;2022-08-01T09:59:52;31.20;51.70
52231;DHT22;38192;50.102;19.884;2022-08-01T10:02:38;31.20;52.40
52231;DHT22;38192;50.102;19.884;2022-08-01T10:05:07;31.10;52.90
52231;DHT22;38192;50.102;19.884;2022-08-01T10:07:33;31.10;53.70
52231;DHT22;38192;50.102;19.884;2022-08-01T10:10:13;31.20;54.10
52231;DHT22;38192;50.102;19.884;2022-08-01T10:12:43;31.30;53.30
52231;DHT22;38192;50.102;19.884;2022-08-01T10:15:09;31.40;52.80
52231;DHT22;38192;50.102;19.884;2022-08-01T10:17:38;31.40;52.30
52231;DHT22;38192;50.102;19.884;2022-08-01T10:20:05;31.40;53.10
52231;DHT22;38192;50.102;19.884;2022-08-01T10:22:35;31.40;52.90
52231;DHT22;38192;50.102;19.884;2022-08-01T10:25:03;31.40;52.10
52231;DHT22;38192;50.102;19.884;2022-08-01T10:27:32;31.20;52.50
52231;DHT22;38192;50.102;19.884;2022-08-01T10:30:01;31.10;52.70
52231;DHT22;38192;50.102;19.884;2022-08-01T10:32:32;30.80;51.80
52231;DHT22;38192;50.102;19.884;2022-08-01T10:34:59;30.80;52.80
52231;DHT22;38192;50.102;19.884;2022-08-01T10:37:26;30.70;51.70
52231;DHT22;38192;50.102;19.884;2022-08-01T10:39:53;30.60;51.80
52231;DHT22;38192;50.102;19.884;2022-08-01T10:42:19;30.60;52.20
52231;DHT22;38192;50.102;19.884;2022-08-01T10:44:46;30.50;53.30
52231;DHT22;38192;50.102;19.884;2022-08-01T10:47:15;30.50;54.10
52231;DHT22;38192;50.102;19.884;2022-08-01T10:49:43;30.50;52.70
52231;DHT22;38192;50.102;19.884;2022-08-01T10:52:17;30.40;52.20
52231;DHT22;38192;50.102;19.884;2022-08-01T10:54:44;30.20;52.40
52231;DHT22;38192;50.102;19.884;2022-08-01T10:57:11;30.20;53.60
52231;DHT22;38192;50.102;19.884;2022-08-01T10:59:48;30.10;53.00
52231;DHT22;38192;50.102;19.884;2022-08-01T11:02:31;30.10;53.50
52231;DHT22;38192;50.102;19.884;2022-08-01T11:05:06;30.00;54.10
52231;DHT22;38192;50.102;19.884;2022-08-01T11:07:51;30.00;53.90
52231;DHT22;38192;50.102;19.884;2022-08-01T11:10:37;30.00;54.00
52231;DHT22;38192;50.102;19.884;2022-08-01T11:13:03;30.10;54.20
52231;DHT22;38192;50.102;19.884;2022-08-01T11:15:33;30.20;54.60
52231;DHT22;38192;50.102;19.884;2022-08-01T11:18:01;30.30;54.10
52231;DHT22;38192;50.102;19.884;2022-08-01T11:20:33;30.40;54.30
52231;DHT22;38192;50.102;19.884;2022-08-01T11:30:47;30.50;54.10
52231;DHT22;38192;50.102;19.884;2022-08-01T11:33:15;30.60;52.40
52231;DHT22;38192;50.102;19.884;2022-08-01T11:41:31;30.40;51.90
52231;DHT22;38192;50.102;19.884;2022-08-01T11:44:08;30.40;53.60
52231;DHT22;38192;50.102;19.884;2022-08-01T11:49:30;30.40;54.00
52231;DHT22;38192;50.102;19.884;2022-08-01T11:52:09;30.10;53.20
52231;DHT22;38192;50.102;19.884;2022-08-01T11:54:41;29.90;54.00
52231;DHT22;38192;50.102;19.884;2022-08-01T11:57:19;29.80;54.40
52231;DHT22;38192;50.102;19.884;2022-08-01T11:59:50;29.80;54.50
52231;DHT22;38192;50.102;19.884;2022-08-01T12:02:28;29.80;54.40
52231;DHT22;38192;50.102;19.884;2022-08-01T12:07:31;29.50;54.50
52231;DHT22;38192;50.102;19.884;2022-08-01T12:10:12;29.50;56.00
52231;DHT22;38192;50.102;19.884;2022-08-01T12:12:46;29.30;57.10
52231;DHT22;38192;50.102;19.884;2022-08-01T12:15:14;29.30;58.20
52231;DHT22;38192;50.102;19.884;2022-08-01T12:17:46;29.20;58.50
52231;DHT22;38192;50.102;19.884;2022-08-01T12:20:14;29.20;59.30
52231;DHT22;38192;50.102;19.884;2022-08-01T12:22:40;29.20;59.60
52231;DHT22;38192;50.102;19.884;2022-08-01T12:25:17;29.10;59.70
52231;DHT22;38192;50.102;19.884;2022-08-01T12:27:44;29.10;59.80
52231;DHT22;38192;50.102;19.884;2022-08-01T12:30:13;29.00;60.60
52231;DHT22;38192;50.102;19.884;2022-08-01T12:32:41;29.00;59.70
52231;DHT22;38192;50.102;19.884;2022-08-01T12:35:15;29.10;60.20
52231;DHT22;38192;50.102;19.884;2022-08-01T12:37:43;29.00;60.30
52231;DHT22;38192;50.102;19.884;2022-08-01T12:40:30;29.00;59.10
52231;DHT22;38192;50.102;19.884;2022-08-01T12:42:58;28.90;59.10
52231;DHT22;38192;50.102;19.884;2022-08-01T12:45:27;28.90;59.70
52231;DHT22;38192;50.102;19.884;2022-08-01T12:47:54;28.80;59.10
52231;DHT22;38192;50.102;19.884;2022-08-01T12:50:25;28.70;60.00
52231;DHT22;38192;50.102;19.884;2022-08-01T12:52:53;28.60;61.30
52231;DHT22;38192;50.102;19.884;2022-08-01T12:55:22;28.50;61.40
52231;DHT22;38192;50.102;19.884;2022-08-01T12:58:03;28.40;62.10
52231;DHT22;38192;50.102;19.884;2022-08-01T13:00:29;28.30;63.00
52231;DHT22;38192;50.102;19.884;2022-08-01T13:03:11;28.30;63.00
52231;DHT22;38192;50.102;19.884;2022-08-01T13:05:54;28.30;62.40
52231;DHT22;38192;50.102;19.884;2022-08-01T13:08:23;28.20;62.10
52231;DHT22;38192;50.102;19.884;2022-08-01T13:10:49;28.10;61.70
52231;DHT22;38192;50.102;19.884;2022-08-01T13:13:17;28.10;62.50
52231;DHT22;38192;50.102;19.884;2022-08-01T13:15:44;28.00;62.30
52231;DHT22;38192;50.102;19.884;2022-08-01T13:18:30;28.00;62.80
52231;DHT22;38192;50.102;19.884;2022-08-01T13:21:20;27.90;63.20
52231;DHT22;38192;50.102;19.884;2022-08-01T13:24:14;27.70;63.60
52231;DHT22;38192;50.102;19.884;2022-08-01T13:26:41;27.50;63.50
52231;DHT22;38192;50.102;19.884;2022-08-01T13:29:09;27.50;64.00
52231;DHT22;38192;50.102;19.884;2022-08-01T13:31:36;27.40;63.90
52231;DHT22;38192;50.102;19.884;2022-08-01T13:34:03;27.40;63.80
52231;DHT22;38192;50.102;19.884;2022-08-01T13:36:29;27.40;64.80
52231;DHT22;38192;50.102;19.884;2022-08-01T13:39:00;27.40;66.00
52231;DHT22;38192;50.102;19.884;2022-08-01T13:41:46;27.50;64.90
52231;DHT22;38192;50.102;19.884;2022-08-01T13:44:13;27.40;64.10
52231;DHT22;38192;50.102;19.884;2022-08-01T13:46:41;27.40;65.30
52231;DHT22;38192;50.102;19.884;2022-08-01T13:49:09;27.40;63.80
52231;DHT22;38192;50.102;19.884;2022-08-01T13:51:36;27.40;63.60
52231;DHT22;38192;50.102;19.884;2022-08-01T13:54:03;27.40;62.30
52231;DHT22;38192;50.102;19.884;2022-08-01T13:56:28;27.40;62.60
52231;DHT22;38192;50.102;19.884;2022-08-01T13:58:55;27.40;63.40
52231;DHT22;38192;50.102;19.884;2022-08-01T14:01:22;27.50;63.70
52231;DHT22;38192;50.102;19.884;2022-08-01T14:03:48;27.60;63.70
52231;DHT22;38192;50.102;19.884;2022-08-01T14:06:14;27.60;63.20
52231;DHT22;38192;50.102;19.884;2022-08-01T14:08:43;27.70;63.40
52231;DHT22;38192;50.102;19.884;2022-08-01T14:11:09;27.70;63.50
52231;DHT22;38192;50.102;19.884;2022-08-01T14:13:34;27.70;64.10
52231;DHT22;38192;50.102;19.884;2022-08-01T14:16:04;27.70;63.60
52231;DHT22;38192;50.102;19.884;2022-08-01T14:18:30;27.70;63.10
52231;DHT22;38192;50.102;19.884;2022-08-01T14:20:56;27.70;64.20
52231;DHT22;38192;50.102;19.884;2022-08-01T14:23:22;27.80;64.20
52231;DHT22;38192;50.102;19.884;2022-08-01T14:25:48;27.90;64.10
52231;DHT22;38192;50.102;19.884;2022-08-01T14:28:13;28.10;62.70
52231;DHT22;38192;50.102;19.884;2022-08-01T14:30:40;28.30;61.50
52231;DHT22;38192;50.102;19.884;2022-08-01T14:33:09;28.50;61.40
52231;DHT22;38192;50.102;19.884;2022-08-01T14:35:34;28.60;61.80
52231;DHT22;38192;50.102;19.884;2022-08-01T14:38:00;28.60;61.50
52231;DHT22;38192;50.102;19.884;2022-08-01T14:40:26;28.70;61.50
52231;DHT22;38192;50.102;19.884;2022-08-01T14:42:52;28.80;60.40
52231;DHT22;38192;50.102;19.884;2022-08-01T14:45:18;28.90;60.50
52231;DHT22;38192;50.102;19.884;2022-08-01T14:47:44;29.00;61.20
52231;DHT22;38192;50.102;19.884;2022-08-01T14:50:13;29.10;61.40
52231;DHT22;38192;50.102;19.884;2022-08-01T14:52:40;29.20;62.00
52231;DHT22;38192;50.102;19.884;2022-08-01T14:55:08;29.10;61.00
52231;DHT22;38192;50.102;19.884;2022-08-01T14:57:35;29.20;61.20
52231;DHT22;38192;50.102;19.884;2022-08-01T15:00:01;29.20;61.20
52231;DHT22;38192;50.102;19.884;2022-08-01T15:02:28;29.10;61.50
52231;DHT22;38192;50.102;19.884;2022-08-01T15:04:53;29.10;62.10
52231;DHT22;38192;50.102;19.884;2022-08-01T15:07:19;28.90;62.40
52231;DHT22;38192;50.102;19.884;2022-08-01T15:09:45;28.80;63.60
52231;DHT22;38192;50.102;19.884;2022-08-01T15:12:11;28.80;63.90
52231;DHT22;38192;50.102;19.884;2022-08-01T15:14:37;28.80;63.90
52231;DHT22;38192;50.102;19.884;2022-08-01T15:17:29;28.80;63.70
52231;DHT22;38192;50.102;19.884;2022-08-01T15:19:57;28.90;63.50
52231;DHT22;38192;50.102;19.884;2022-08-01T15:22:24;28.90;63.50
52231;DHT22;38192;50.102;19.884;2022-08-01T15:24:51;28.80;63.70
52231;DHT22;38192;50.102;19.884;2022-08-01T15:27:17;28.70;64.40
52231;DHT22;38192;50.102;19.884;2022-08-01T15:29:43;28.60;64.70
52231;DHT22;38192;50.102;19.884;2022-08-01T15:32:09;28.50;64.80
52231;DHT22;38192;50.102;19.884;2022-08-01T15:34:36;28.50;64.90
52231;DHT22;38192;50.102;19.884;2022-08-01T15:37:03;28.50;65.40
52231;DHT22;38192;50.102;19.884;2022-08-01T15:39:30;28.50;65.80
52231;DHT22;38192;50.102;19.884;2022-08-01T15:41:59;28.40;65.20
52231;DHT22;38192;50.102;19.884;2022-08-01T15:44:28;28.30;66.30
52231;DHT22;38192;50.102;19.884;2022-08-01T15:46:54;28.30;65.40
52231;DHT22;38192;50.102;19.884;2022-08-01T15:49:20;28.20;65.90
52231;DHT22;38192;50.102;19.884;2022-08-01T15:51:48;28.10;66.20
52231;DHT22;38192;50.102;19.884;2022-08-01T15:54:15;28.00;66.00
52231;DHT22;38192;50.102;19.884;2022-08-01T15:56:42;27.80;66.10
52231;DHT22;38192;50.102;19.884;2022-08-01T15:59:08;27.70;66.80